createdAt,value
2022-08-28T00:00:26.048Z,20.00
2022-08-28T00:02:55.066Z,20.00
2022-08-28T00:05:24.115Z,19.90
2022-08-28T00:07:51.153Z,19.80
2022-08-28T00:10:20.340Z,19.70
2022-08-28T00:12:50.381Z,19.70
2022-08-28T00:15:26.664Z,19.60
2022-08-28T00:17:53.589Z,19.70
2022-08-28T00:20:21.695Z,19.70
2022-08-28T00:22:48.798Z,19.70
2022-08-28T00:25:19.885Z,19.70
2022-08-28T00:27:52.543Z,19.60
2022-08-28T00:30:27.945Z,19.60
2022-08-28T00:32:57.526Z,19.50
2022-08-28T00:35:25.208Z,19.40
2022-08-28T00:37:54.642Z,19.30
2022-08-28T00:40:30.490Z,19.30
2022-08-28T00:43:04.098Z,19.30
2022-08-28T00:45:37.263Z,19.20
2022-08-28T00:48:06.435Z,19.10
2022-08-28T00:50:56.736Z,19.00
2022-08-28T00:53:30.187Z,19.00
2022-08-28T00:56:05.149Z,18.90
2022-08-28T00:58:37.463Z,18.90
2022-08-28T01:01:04.456Z,18.80
2022-08-28T01:03:31.626Z,18.80
2022-08-28T01:05:58.820Z,18.80
2022-08-28T01:08:25.755Z,18.80
2022-08-28T01:11:00.040Z,18.80
2022-08-28T01:13:27.808Z,18.70
2022-08-28T01:15:55.785Z,18.70
2022-08-28T01:18:23.231Z,18.70
2022-08-28T01:21:23.896Z,18.60
2022-08-28T01:24:00.003Z,18.60
2022-08-28T01:26:28.747Z,18.50
2022-08-28T01:28:58.326Z,18.50
2022-08-28T01:31:26.135Z,18.50
2022-08-28T01:33:53.294Z,18.40
2022-08-28T01:36:20.884Z,18.40
2022-08-28T01:38:55.988Z,18.30
2022-08-28T01:41:22.866Z,18.30
2022-08-28T01:43:49.770Z,18.20
2022-08-28T01:46:17.114Z,18.20
2022-08-28T01:48:44.450Z,18.20
2022-08-28T01:51:12.306Z,18.10
2022-08-28T01:53:39.595Z,18.10
2022-08-28T01:56:10.856Z,18.10
2022-08-28T01:58:38.660Z,18.10
2022-08-28T02:01:14.011Z,18.00
2022-08-28T02:03:43.205Z,18.00
2022-08-28T02:06:10.393Z,18.00
2022-08-28T02:08:37.597Z,17.90
2022-08-28T02:11:06.430Z,17.80
2022-08-28T02:13:35.069Z,17.80
2022-08-28T02:16:02.374Z,17.80
2022-08-28T02:18:29.570Z,17.80
2022-08-28T02:20:56.488Z,17.70
2022-08-28T02:23:23.475Z,17.70
2022-08-28T02:25:50.915Z,17.70
2022-08-28T02:28:17.925Z,17.60
2022-08-28T02:30:44.903Z,17.60
2022-08-28T02:33:11.812Z,17.60
2022-08-28T02:35:40.423Z,17.60
2022-08-28T02:38:07.625Z,17.50
2022-08-28T02:40:34.676Z,17.50
2022-08-28T02:43:01.674Z,17.50
2022-08-28T02:45:28.531Z,17.40
2022-08-28T02:47:56.857Z,17.40
2022-08-28T02:50:24.401Z,17.40
2022-08-28T02:52:52.079Z,17.30
2022-08-28T02:55:19.816Z,17.30
2022-08-28T02:57:47.877Z,17.30
2022-08-28T03:00:19.930Z,17.30
2022-08-28T03:02:47.878Z,17.20
2022-08-28T03:05:17.731Z,17.20
2022-08-28T03:07:44.764Z,17.20
2022-08-28T03:10:12.469Z,17.20
2022-08-28T03:12:39.424Z,17.20
2022-08-28T03:15:07.921Z,17.20
2022-08-28T03:17:36.881Z,17.20
2022-08-28T03:20:08.405Z,17.10
2022-08-28T03:22:54.162Z,17.10
2022-08-28T03:25:22.437Z,17.10
2022-08-28T03:27:50.479Z,17.10
2022-08-28T03:30:19.084Z,17.00
2022-08-28T03:32:46.042Z,17.00
2022-08-28T03:35:13.309Z,17.00
2022-08-28T03:37:40.725Z,17.00
2022-08-28T03:40:09.211Z,17.00
2022-08-28T03:42:36.280Z,17.00
2022-08-28T03:45:05.358Z,17.00
2022-08-28T03:47:32.248Z,17.00
2022-08-28T03:49:59.218Z,17.00
2022-08-28T03:52:26.206Z,17.00
2022-08-28T03:54:53.371Z,16.90
2022-08-28T03:57:22.198Z,16.90
2022-08-28T03:59:51.045Z,16.90
2022-08-28T04:02:20.478Z,16.90
2022-08-28T04:04:49.681Z,16.90
2022-08-28T04:07:17.752Z,16.90
2022-08-28T04:09:44.871Z,16.90
2022-08-28T04:12:11.765Z,16.90
2022-08-28T04:14:39.125Z,16.90
2022-08-28T04:17:06.788Z,17.00
2022-08-28T04:19:34.035Z,17.00
2022-08-28T04:22:01.323Z,16.90
2022-08-28T04:24:28.182Z,16.90
2022-08-28T04:26:55.144Z,17.00
2022-08-28T04:29:23.135Z,17.00
2022-08-28T04:31:50.466Z,17.00
2022-08-28T04:34:17.998Z,17.00
2022-08-28T04:36:46.258Z,17.10
2022-08-28T04:39:13.401Z,17.20
2022-08-28T04:41:40.295Z,17.20
2022-08-28T04:44:08.033Z,17.30
2022-08-28T04:46:35.015Z,17.30
2022-08-28T04:49:02.037Z,17.40
2022-08-28T04:51:29.226Z,17.40
2022-08-28T04:53:57.484Z,17.50
2022-08-28T04:56:25.103Z,17.50
2022-08-28T04:58:52.016Z,17.60
2022-08-28T05:01:24.576Z,17.60
2022-08-28T05:03:56.063Z,17.70
2022-08-28T05:06:26.723Z,17.80
2022-08-28T05:08:57.478Z,17.80
2022-08-28T05:11:33.314Z,17.80
2022-08-28T05:14:04.443Z,17.90
2022-08-28T05:16:32.121Z,17.90
2022-08-28T05:19:03.096Z,18.00
2022-08-28T05:21:30.133Z,18.10
2022-08-28T05:23:57.800Z,18.10
2022-08-28T05:26:26.873Z,18.20
2022-08-28T05:28:56.423Z,18.30
2022-08-28T05:31:24.781Z,18.50
2022-08-28T05:33:52.849Z,18.60
2022-08-28T05:36:22.860Z,18.70
2022-08-28T05:38:53.363Z,18.80
2022-08-28T05:41:27.401Z,18.90
2022-08-28T05:43:54.444Z,19.00
2022-08-28T05:46:23.189Z,19.00
2022-08-28T05:48:50.201Z,19.20
2022-08-28T05:51:20.263Z,19.20
2022-08-28T05:53:49.976Z,19.30
2022-08-28T05:56:24.261Z,19.40
2022-08-28T05:58:51.289Z,19.50
2022-08-28T06:01:21.823Z,19.60
2022-08-28T06:03:57.942Z,19.70
2022-08-28T06:06:27.975Z,19.80
2022-08-28T06:08:59.497Z,19.90
2022-08-28T06:11:30.393Z,20.00
2022-08-28T06:14:02.421Z,20.10
2022-08-28T06:16:31.880Z,20.10
2022-08-28T06:19:00.367Z,20.20
2022-08-28T06:21:27.759Z,20.30
2022-08-28T06:23:54.720Z,20.30
2022-08-28T06:26:21.898Z,20.40
2022-08-28T06:28:48.840Z,20.40
2022-08-28T06:31:24.685Z,20.50
2022-08-28T06:33:57.352Z,20.70
2022-08-28T06:36:28.701Z,20.80
2022-08-28T06:39:00.995Z,20.80
2022-08-28T06:41:29.558Z,20.80
2022-08-28T06:43:57.247Z,20.90
2022-08-28T06:46:25.221Z,21.00
2022-08-28T06:48:52.896Z,21.10
2022-08-28T06:51:19.871Z,21.20
2022-08-28T06:53:50.021Z,21.30
2022-08-28T06:56:26.694Z,21.40
2022-08-28T06:58:55.499Z,21.50
2022-08-28T07:01:29.603Z,21.60
2022-08-28T07:04:00.305Z,21.70
2022-08-28T07:06:30.447Z,21.80
2022-08-28T07:08:57.371Z,21.90
2022-08-28T07:11:31.198Z,22.00
2022-08-28T07:13:58.949Z,22.00
2022-08-28T07:16:29.535Z,22.10
2022-08-28T07:18:57.341Z,22.10
2022-08-28T07:21:24.736Z,22.20
2022-08-28T07:23:51.920Z,22.30
2022-08-28T07:26:23.305Z,22.50
2022-08-28T07:28:51.986Z,22.60
2022-08-28T07:31:22.990Z,22.60
2022-08-28T07:33:53.877Z,22.80
2022-08-28T07:36:29.463Z,23.00
2022-08-28T07:38:58.933Z,23.10
2022-08-28T07:41:29.097Z,23.20
2022-08-28T07:44:14.381Z,23.30
2022-08-28T07:46:41.892Z,23.50
2022-08-28T07:49:09.203Z,23.50
2022-08-28T07:51:36.516Z,23.60
2022-08-28T07:54:04.173Z,23.80
2022-08-28T07:56:32.110Z,23.80
2022-08-28T07:59:00.854Z,24.00
2022-08-28T08:01:30.681Z,24.10
2022-08-28T08:04:01.743Z,24.20
2022-08-28T08:06:33.753Z,24.40
2022-08-28T08:09:02.172Z,24.60
2022-08-28T08:11:32.463Z,24.70
2022-08-28T08:14:05.314Z,24.80
2022-08-28T08:16:35.908Z,25.00
2022-08-28T08:19:03.939Z,25.10
2022-08-28T08:21:31.561Z,25.30
2022-08-28T08:23:59.334Z,25.30
2022-08-28T08:26:30.674Z,25.40
2022-08-28T08:28:57.691Z,25.40
2022-08-28T08:31:26.817Z,25.40
2022-08-28T08:33:57.319Z,25.60
2022-08-28T08:36:26.315Z,25.70
2022-08-28T08:39:00.054Z,25.70
2022-08-28T08:41:39.334Z,25.80
2022-08-28T08:44:33.363Z,26.00
2022-08-28T08:47:16.129Z,26.10
2022-08-28T08:50:01.540Z,26.20
2022-08-28T08:52:32.161Z,26.30
2022-08-28T08:55:15.487Z,26.40
2022-08-28T08:57:44.368Z,26.40
2022-08-28T09:00:17.245Z,26.60
2022-08-28T09:02:56.005Z,26.70
2022-08-28T09:05:37.800Z,26.80
2022-08-28T09:08:06.794Z,26.90
2022-08-28T09:10:42.849Z,26.90
2022-08-28T09:13:21.130Z,27.00
2022-08-28T09:15:50.886Z,27.00
2022-08-28T09:18:36.078Z,27.10
2022-08-28T09:21:05.609Z,27.10
2022-08-28T09:23:32.496Z,27.10
2022-08-28T09:26:05.975Z,26.50
2022-08-28T09:28:37.448Z,25.80
2022-08-28T09:31:09.144Z,25.40
2022-08-28T09:33:48.861Z,25.00
2022-08-28T09:36:37.179Z,24.60
2022-08-28T09:39:18.419Z,24.30
2022-08-28T09:42:17.259Z,24.10
2022-08-28T09:45:13.298Z,23.90
2022-08-28T09:47:49.966Z,23.90
2022-08-28T09:50:28.982Z,23.80
2022-08-28T09:53:17.863Z,23.70
2022-08-28T09:55:53.821Z,23.70
2022-08-28T09:58:22.199Z,23.70
2022-08-28T10:01:04.062Z,23.60
2022-08-28T10:03:37.106Z,23.50
2022-08-28T10:06:29.495Z,23.50
2022-08-28T10:09:23.280Z,23.60
2022-08-28T10:12:11.524Z,23.30
2022-08-28T10:14:45.488Z,23.40
2022-08-28T10:17:56.696Z,23.30
2022-08-28T10:20:55.859Z,23.20
2022-08-28T10:23:33.110Z,23.20
2022-08-28T10:26:30.270Z,23.20
2022-08-28T10:29:48.375Z,23.20
2022-08-28T10:32:52.469Z,23.20
2022-08-28T10:35:35.974Z,23.10
2022-08-28T10:38:05.796Z,23.20
2022-08-28T10:40:47.793Z,23.30
2022-08-28T10:43:20.082Z,23.40
2022-08-28T10:45:49.347Z,23.50
2022-08-28T10:48:17.738Z,23.50
2022-08-28T10:50:57.608Z,23.50
2022-08-28T10:53:39.660Z,23.70
2022-08-28T10:56:17.561Z,23.70
2022-08-28T10:58:47.379Z,23.80
2022-08-28T11:01:35.776Z,23.90
2022-08-28T11:04:09.624Z,24.00
2022-08-28T11:06:50.394Z,24.00
2022-08-28T11:09:34.825Z,23.90
2022-08-28T11:12:10.176Z,24.00
2022-08-28T11:14:48.076Z,23.90
2022-08-28T11:17:27.875Z,24.00
2022-08-28T11:20:17.822Z,24.20
2022-08-28T11:22:53.015Z,24.30
2022-08-28T11:25:26.264Z,24.50
2022-08-28T11:28:19.450Z,24.80
2022-08-28T11:30:50.143Z,24.70
2022-08-28T11:33:39.073Z,24.80
2022-08-28T11:36:11.818Z,25.00
2022-08-28T11:38:41.925Z,25.10
2022-08-28T11:41:14.630Z,25.20
2022-08-28T11:43:46.517Z,24.80
2022-08-28T11:46:18.208Z,24.60
2022-08-28T11:48:51.948Z,24.70
2022-08-28T11:51:18.791Z,24.80
2022-08-28T11:53:51.935Z,25.00
2022-08-28T11:56:37.738Z,25.20
2022-08-28T11:59:35.721Z,25.30
2022-08-28T12:02:40.242Z,25.20
2022-08-28T12:05:11.258Z,25.30
2022-08-28T12:07:43.967Z,25.20
2022-08-28T12:10:23.076Z,25.40
2022-08-28T12:12:50.076Z,25.60
2022-08-28T12:15:29.621Z,25.60
2022-08-28T12:18:05.748Z,25.50
2022-08-28T12:20:44.593Z,25.60
2022-08-28T12:23:30.093Z,25.60
2022-08-28T12:26:13.931Z,25.40
2022-08-28T12:28:52.936Z,25.50
2022-08-28T12:31:59.805Z,25.70
2022-08-28T12:34:50.815Z,25.80
2022-08-28T12:37:51.079Z,26.00
2022-08-28T12:40:29.718Z,25.80
2022-08-28T12:43:09.510Z,25.80
2022-08-28T12:45:45.095Z,25.80
2022-08-28T12:48:14.887Z,25.70
2022-08-28T12:50:41.934Z,25.60
2022-08-28T12:53:16.288Z,25.50
2022-08-28T12:55:45.842Z,25.60
2022-08-28T12:58:37.235Z,25.70
2022-08-28T13:01:15.624Z,25.60
2022-08-28T13:03:52.369Z,25.50
2022-08-28T13:06:26.545Z,25.50
2022-08-28T13:09:03.988Z,25.50
2022-08-28T13:11:36.628Z,25.20
2022-08-28T13:14:05.264Z,25.00
2022-08-28T13:16:46.646Z,24.80
2022-08-28T13:19:34.908Z,24.70
2022-08-28T13:22:29.382Z,24.60
2022-08-28T13:25:00.141Z,24.40
2022-08-28T13:27:28.239Z,24.30
2022-08-28T13:30:27.427Z,24.00
2022-08-28T13:33:04.814Z,24.00
2022-08-28T13:35:35.490Z,24.00
2022-08-28T13:38:06.158Z,24.20
2022-08-28T13:43:41.925Z,24.70
2022-08-28T13:46:08.849Z,24.80
2022-08-28T13:48:35.744Z,24.80
2022-08-28T13:51:10.858Z,24.80
2022-08-28T13:53:39.277Z,24.60
2022-08-28T13:56:06.477Z,24.50
2022-08-28T13:58:33.522Z,24.20
2022-08-28T14:01:01.184Z,24.10
2022-08-28T14:03:38.465Z,24.10
2022-08-28T14:06:07.432Z,24.00
2022-08-28T14:08:34.820Z,24.00
2022-08-28T14:11:01.797Z,23.90
2022-08-28T14:13:28.885Z,24.00
2022-08-28T14:15:57.123Z,23.90
2022-08-28T14:18:28.053Z,24.00
2022-08-28T14:20:54.982Z,24.00
2022-08-28T14:23:23.042Z,24.10
2022-08-28T14:25:50.535Z,24.00
2022-08-28T14:28:17.957Z,24.30
2022-08-28T14:30:50.199Z,24.40
2022-08-28T14:33:20.499Z,24.30
2022-08-28T14:35:49.116Z,24.20
2022-08-28T14:38:16.779Z,24.40
2022-08-28T14:40:44.801Z,24.60
2022-08-28T14:43:13.652Z,24.80
2022-08-28T14:45:48.536Z,24.80
2022-08-28T14:48:17.352Z,25.10
2022-08-28T14:50:47.090Z,25.30
2022-08-28T14:53:14.959Z,25.40
2022-08-28T14:55:43.964Z,25.40
2022-08-28T14:58:11.098Z,25.30
2022-08-28T15:00:40.125Z,25.20
2022-08-28T15:03:07.081Z,25.10
2022-08-28T15:05:34.223Z,24.90
2022-08-28T15:08:01.535Z,24.80
2022-08-28T15:10:28.883Z,24.60
2022-08-28T15:12:55.807Z,24.40
2022-08-28T15:15:22.917Z,24.30
2022-08-28T15:17:49.831Z,24.10
2022-08-28T15:20:16.870Z,24.00
2022-08-28T15:22:43.746Z,23.90
2022-08-28T15:25:10.728Z,23.80
2022-08-28T15:27:37.836Z,23.80
2022-08-28T15:30:05.703Z,23.70
2022-08-28T15:32:32.590Z,23.70
2022-08-28T15:34:59.515Z,23.80
2022-08-28T15:37:26.432Z,23.80
2022-08-28T15:40:12.030Z,23.80
2022-08-28T15:42:38.913Z,23.70
2022-08-28T15:45:06.194Z,23.60
2022-08-28T15:47:33.106Z,23.50
2022-08-28T15:50:00.736Z,23.40
2022-08-28T15:52:27.752Z,23.30
2022-08-28T15:54:55.023Z,23.10
2022-08-28T15:57:22.166Z,23.00
2022-08-28T15:59:50.749Z,22.90
2022-08-28T16:02:20.550Z,22.80
2022-08-28T16:04:47.950Z,22.80
2022-08-28T16:07:14.877Z,22.70
2022-08-28T16:09:41.790Z,22.60
2022-08-28T16:12:08.788Z,22.50
2022-08-28T16:14:36.207Z,22.40
2022-08-28T16:17:06.046Z,22.20
2022-08-28T16:19:39.787Z,22.10
2022-08-28T16:22:07.747Z,21.90
2022-08-28T16:24:35.100Z,21.70
2022-08-28T16:27:02.308Z,21.60
2022-08-28T16:29:29.190Z,21.50
2022-08-28T16:31:56.866Z,21.40
2022-08-28T16:34:26.135Z,21.30
2022-08-28T16:36:56.369Z,21.20
2022-08-28T16:39:23.302Z,21.20
2022-08-28T16:41:50.282Z,21.10
2022-08-28T16:44:27.906Z,21.10
2022-08-28T16:46:55.659Z,21.00
2022-08-28T16:49:23.662Z,20.90
2022-08-28T16:51:50.940Z,20.80
2022-08-28T16:54:18.414Z,20.70
2022-08-28T16:56:46.263Z,20.70
2022-08-28T16:59:16.553Z,20.60
2022-08-28T17:01:43.534Z,20.50
2022-08-28T17:04:10.587Z,20.40
2022-08-28T17:06:37.523Z,20.30
2022-08-28T17:09:04.445Z,20.30
2022-08-28T17:11:32.046Z,20.20
2022-08-28T17:14:00.278Z,20.20
2022-08-28T17:16:31.369Z,20.10
2022-08-28T17:18:59.844Z,20.00
2022-08-28T17:21:45.541Z,20.00
2022-08-28T17:24:13.342Z,19.90
2022-08-28T17:26:41.745Z,19.90
2022-08-28T17:29:08.773Z,19.80
2022-08-28T17:31:35.890Z,19.80
2022-08-28T17:34:02.957Z,19.80
2022-08-28T17:36:33.804Z,19.80
2022-08-28T17:39:03.181Z,19.70
2022-08-28T17:41:30.189Z,19.70
2022-08-28T17:43:57.069Z,19.70
2022-08-28T17:46:23.976Z,19.70
2022-08-28T17:48:55.761Z,19.70
2022-08-28T17:51:42.263Z,19.60
2022-08-28T17:54:16.798Z,19.50
2022-08-28T17:56:44.057Z,19.50
2022-08-28T17:59:12.306Z,19.40
2022-08-28T18:01:40.994Z,19.40
2022-08-28T18:04:08.944Z,19.40
2022-08-28T18:06:36.060Z,19.40
2022-08-28T18:09:04.119Z,19.40
2022-08-28T18:11:31.057Z,19.40
2022-08-28T18:13:59.726Z,19.30
2022-08-28T18:16:31.115Z,19.20
2022-08-28T18:18:59.581Z,19.10
2022-08-28T18:21:26.562Z,19.10
2022-08-28T18:23:53.561Z,19.10
2022-08-28T18:26:20.572Z,19.10
2022-08-28T18:28:47.554Z,19.00
2022-08-28T18:31:14.615Z,18.90
2022-08-28T18:33:41.615Z,18.90
2022-08-28T18:36:15.061Z,18.90
2022-08-28T18:38:42.868Z,18.80
2022-08-28T18:41:12.109Z,18.80
2022-08-28T18:43:39.488Z,18.70
2022-08-28T18:46:08.919Z,18.70
2022-08-28T18:48:36.820Z,18.60
2022-08-28T18:51:06.455Z,18.60
2022-08-28T18:53:34.299Z,18.60
2022-08-28T18:56:02.685Z,18.60
2022-08-28T18:58:32.170Z,18.50
2022-08-28T19:01:01.361Z,18.50
2022-08-28T19:03:28.874Z,18.50
2022-08-28T19:05:56.705Z,18.50
2022-08-28T19:08:25.310Z,18.50
2022-08-28T19:10:52.732Z,18.50
2022-08-28T19:13:19.675Z,18.50
2022-08-28T19:15:53.208Z,18.50
2022-08-28T19:18:20.278Z,18.50
2022-08-28T19:20:48.057Z,18.40
2022-08-28T19:23:17.787Z,18.50
2022-08-28T19:25:45.823Z,18.50
2022-08-28T19:28:12.884Z,18.50
2022-08-28T19:30:40.041Z,18.50
2022-08-28T19:33:07.216Z,18.50
2022-08-28T19:35:34.095Z,18.40
2022-08-28T19:38:01.315Z,18.40
2022-08-28T19:40:29.028Z,18.40
2022-08-28T19:42:56.134Z,18.40
2022-08-28T19:45:23.527Z,18.40
2022-08-28T19:47:50.647Z,18.40
2022-08-28T19:50:18.256Z,18.40
2022-08-28T19:52:46.435Z,18.30
2022-08-28T19:55:18.220Z,18.30
2022-08-28T19:57:46.750Z,18.30
2022-08-28T20:00:15.349Z,18.30
2022-08-28T20:02:42.380Z,18.30
2022-08-28T20:05:10.563Z,18.30
2022-08-28T20:07:37.805Z,18.20
2022-08-28T20:10:05.275Z,18.30
2022-08-28T20:12:32.132Z,18.30
2022-08-28T20:15:03.261Z,18.30
2022-08-28T20:17:30.748Z,18.30
2022-08-28T20:20:02.440Z,18.30
2022-08-28T20:22:31.902Z,18.30
2022-08-28T20:24:59.952Z,18.30
2022-08-28T20:27:26.979Z,18.30
2022-08-28T20:29:54.046Z,18.30
2022-08-28T20:32:20.936Z,18.30
2022-08-28T20:34:47.823Z,18.30
2022-08-28T20:37:16.643Z,18.30
2022-08-28T20:39:43.567Z,18.30
2022-08-28T20:42:11.794Z,18.30
2022-08-28T20:44:38.658Z,18.30
2022-08-28T20:47:05.717Z,18.30
2022-08-28T20:49:32.629Z,18.30
2022-08-28T20:52:06.847Z,18.30
2022-08-28T20:54:38.754Z,18.30
2022-08-28T20:57:11.863Z,18.20
2022-08-28T20:59:40.784Z,18.20
2022-08-28T21:02:17.791Z,18.20
2022-08-28T21:04:46.153Z,18.30
2022-08-28T21:07:15.289Z,18.20
2022-08-28T21:10:05.679Z,18.20
2022-08-28T21:12:29.023Z,18.20
2022-08-28T21:14:55.923Z,18.20
2022-08-28T21:17:29.702Z,18.20
2022-08-28T21:20:09.257Z,18.20
2022-08-28T21:22:37.676Z,18.20
2022-08-28T21:25:07.114Z,18.20
2022-08-28T21:27:34.159Z,18.20
2022-08-28T21:30:01.356Z,18.10
2022-08-28T21:32:29.872Z,18.10
2022-08-28T21:34:56.825Z,18.10
2022-08-28T21:37:23.976Z,18.10
2022-08-28T21:39:50.889Z,18.10
2022-08-28T21:42:18.048Z,18.10
2022-08-28T21:44:51.647Z,18.10
2022-08-28T21:47:21.534Z,18.10
2022-08-28T21:49:50.161Z,18.10
2022-08-28T21:52:18.642Z,18.00
2022-08-28T21:54:45.967Z,18.00
2022-08-28T21:57:12.808Z,18.00
2022-08-28T21:59:39.824Z,18.00
2022-08-28T22:02:06.995Z,18.00
2022-08-28T22:04:34.767Z,18.00
2022-08-28T22:07:01.917Z,18.00
2022-08-28T22:09:29.123Z,18.00
2022-08-28T22:11:56.037Z,18.00
2022-08-28T22:14:25.116Z,17.90
2022-08-28T22:16:52.249Z,17.90
2022-08-28T22:19:19.628Z,17.90
2022-08-28T22:22:05.314Z,17.90
2022-08-28T22:24:32.210Z,17.90
2022-08-28T22:26:59.052Z,17.90
2022-08-28T22:29:26.257Z,17.90
2022-08-28T22:31:53.349Z,17.90
2022-08-28T22:34:20.442Z,17.90
2022-08-28T22:36:47.477Z,17.80
2022-08-28T22:39:14.494Z,17.80
2022-08-28T22:41:42.069Z,17.80
2022-08-28T22:44:09.983Z,17.80
2022-08-28T22:46:37.090Z,17.80
2022-08-28T22:49:04.430Z,17.70
2022-08-28T22:51:34.351Z,17.70
2022-08-28T22:54:01.433Z,17.70
2022-08-28T22:56:28.444Z,17.70
2022-08-28T22:58:55.373Z,17.70
2022-08-28T23:01:24.828Z,17.70
2022-08-28T23:03:52.408Z,17.60
2022-08-28T23:06:21.453Z,17.70
2022-08-28T23:08:48.732Z,17.60
2022-08-28T23:11:15.972Z,17.60
2022-08-28T23:13:42.888Z,17.70
2022-08-28T23:16:09.932Z,17.60
2022-08-28T23:19:06.748Z,17.60
2022-08-28T23:21:26.439Z,17.60
2022-08-28T23:23:55.048Z,17.60
2022-08-28T23:26:22.398Z,17.60
2022-08-28T23:28:49.304Z,17.60
2022-08-28T23:31:16.595Z,17.60
2022-08-28T23:33:43.773Z,17.50
2022-08-28T23:36:11.377Z,17.60
2022-08-28T23:38:42.916Z,17.50
2022-08-28T23:41:11.113Z,17.50
2022-08-28T23:43:38.649Z,17.50
2022-08-28T23:46:06.588Z,17.40
2022-08-28T23:48:35.272Z,17.40
2022-08-28T23:51:02.331Z,17.30
2022-08-28T23:53:29.689Z,17.30
2022-08-28T23:55:59.557Z,17.30
2022-08-28T23:58:31.637Z,17.20
